createdAt,value
2018-11-28T00:06:19.000Z,1014.02
2018-11-28T00:16:19.000Z,1013.929
2018-11-28T00:26:19.000Z,1013.808
2018-11-28T00:36:19.000Z,1013.741
2018-11-28T00:46:19.000Z,1013.706
2018-11-28T00:56:19.000Z,1013.669
2018-11-28T01:06:19.000Z,1013.611
2018-11-28T01:16:19.000Z,1013.676
2018-11-28T01:26:19.000Z,1013.664
2018-11-28T01:36:19.000Z,1013.648
2018-11-28T01:46:19.000Z,1013.538
2018-11-28T01:56:19.000Z,1013.385
2018-11-28T02:06:19.000Z,1013.503
2018-11-28T02:16:20.000Z,1013.472
2018-11-28T02:26:19.000Z,1013.459
2018-11-28T02:36:20.000Z,1013.475
2018-11-28T02:46:20.000Z,1013.393
2018-11-28T02:56:20.000Z,1013.359
2018-11-28T03:06:20.000Z,1013.303
2018-11-28T03:16:20.000Z,1013.305
2018-11-28T03:26:20.000Z,1013.302
2018-11-28T03:36:20.000Z,1013.171
2018-11-28T03:46:20.000Z,1013.107
2018-11-28T03:56:20.000Z,1013.164
2018-11-28T04:06:20.000Z,1013.05
2018-11-28T04:16:20.000Z,1013.16
2018-11-28T04:26:20.000Z,1013.255
2018-11-28T04:36:20.000Z,1013.155
2018-11-28T04:46:20.000Z,1013.29
2018-11-28T04:56:20.000Z,1013.153
2018-11-28T05:06:20.000Z,1013.02
2018-11-28T05:26:20.000Z,1012.919
2018-11-28T05:36:20.000Z,1012.976
2018-11-28T05:46:20.000Z,1012.894
2018-11-28T05:56:20.000Z,1013.014
2018-11-28T06:06:20.000Z,1012.933
2018-11-28T06:16:20.000Z,1012.957
2018-11-28T06:26:20.000Z,1012.88
2018-11-28T06:46:20.000Z,1012.997
2018-11-28T06:56:20.000Z,1013.111
2018-11-28T07:06:20.000Z,1013.138
2018-11-28T07:16:21.000Z,1013.371
2018-11-28T07:26:20.000Z,1013.4
2018-11-28T07:36:20.000Z,1013.423
2018-11-28T07:46:20.000Z,1013.441
2018-11-28T07:56:20.000Z,1013.47
2018-11-28T08:06:20.000Z,1013.503
2018-11-28T08:16:20.000Z,1013.587
2018-11-28T08:26:20.000Z,1013.546
2018-11-28T08:36:20.000Z,1013.387
2018-11-28T08:46:20.000Z,1013.326
2018-11-28T08:56:20.000Z,1013.151
2018-11-28T09:06:20.000Z,1013.189
2018-11-28T09:16:20.000Z,1013.157
2018-11-28T09:26:20.000Z,1013.263
2018-11-28T09:36:20.000Z,1013.315
2018-11-28T09:46:20.000Z,1013.375
2018-11-28T09:56:20.000Z,1013.32
2018-11-28T10:06:20.000Z,1013.154
2018-11-28T10:16:20.000Z,1013.113
2018-11-28T10:26:20.000Z,1013.071
2018-11-28T10:36:20.000Z,1012.916
2018-11-28T10:46:20.000Z,1012.855
2018-11-28T10:56:21.000Z,1012.747
2018-11-28T11:06:21.000Z,1012.66
2018-11-28T11:16:21.000Z,1012.561
2018-11-28T11:26:21.000Z,1012.491
2018-11-28T11:36:21.000Z,1012.441
2018-11-28T11:46:21.000Z,1012.347
2018-11-28T11:56:21.000Z,1012.231
2018-11-28T12:06:21.000Z,1012.077
2018-11-28T12:16:21.000Z,1012.031
2018-11-28T12:26:21.000Z,1011.985
2018-11-28T12:46:21.000Z,1011.934
2018-11-28T12:56:21.000Z,1011.862
2018-11-28T13:06:21.000Z,1011.808
2018-11-28T13:16:21.000Z,1011.751
2018-11-28T13:26:21.000Z,1011.687
2018-11-28T13:36:21.000Z,1011.559
2018-11-28T13:46:21.000Z,1011.315
2018-11-28T14:06:21.000Z,1011.088
2018-11-28T14:16:21.000Z,1011.135
2018-11-28T14:26:22.000Z,1011.185
2018-11-28T14:36:21.000Z,1011.127
2018-11-28T14:46:21.000Z,1010.971
2018-11-28T14:56:21.000Z,1010.862
2018-11-28T15:06:21.000Z,1010.766
2018-11-28T15:16:21.000Z,1010.788
2018-11-28T15:26:21.000Z,1010.796
2018-11-28T15:36:21.000Z,1010.669
2018-11-28T15:46:21.000Z,1010.523
2018-11-28T15:56:21.000Z,1010.474
2018-11-28T16:06:21.000Z,1010.491
2018-11-28T16:16:21.000Z,1010.424
2018-11-28T16:26:21.000Z,1010.503
2018-11-28T16:36:21.000Z,1010.458
2018-11-28T16:46:21.000Z,1010.477
2018-11-28T16:56:21.000Z,1010.515
2018-11-28T17:06:21.000Z,1010.536
2018-11-28T17:16:21.000Z,1010.589
2018-11-28T17:26:21.000Z,1010.575
2018-11-28T17:36:21.000Z,1010.392
2018-11-28T17:46:22.000Z,1010.698
2018-11-28T17:56:21.000Z,1010.635
2018-11-28T18:06:21.000Z,1010.537
2018-11-28T18:16:21.000Z,1010.552
2018-11-28T18:26:21.000Z,1010.533
2018-11-28T18:36:21.000Z,1010.495
2018-11-28T18:46:21.000Z,1010.425
2018-11-28T18:56:21.000Z,1010.483
2018-11-28T19:06:22.000Z,1010.517
2018-11-28T19:16:22.000Z,1010.372
2018-11-28T19:26:22.000Z,1010.242
2018-11-28T19:36:22.000Z,1010.31
2018-11-28T19:46:22.000Z,1010.114
2018-11-28T19:56:22.000Z,1010.01
2018-11-28T20:06:22.000Z,1009.945
2018-11-28T20:16:22.000Z,1010.057
2018-11-28T20:26:22.000Z,1010.006
2018-11-28T20:36:22.000Z,1010.014
2018-11-28T20:46:22.000Z,1009.908
2018-11-28T20:56:23.000Z,1010.028
2018-11-28T21:06:22.000Z,1009.773
2018-11-28T21:16:22.000Z,1009.75
2018-11-28T21:26:22.000Z,1009.526
2018-11-28T21:36:22.000Z,1009.619
2018-11-28T21:46:22.000Z,1009.565
2018-11-28T21:56:25.000Z,1009.599
2018-11-28T22:06:22.000Z,1009.58
2018-11-28T22:16:22.000Z,1009.422
2018-11-28T22:26:22.000Z,1009.396
2018-11-28T22:36:22.000Z,1009.348
2018-11-28T22:46:22.000Z,1009.21
2018-11-28T22:56:22.000Z,1009.104
2018-11-28T23:06:22.000Z,1009.09
2018-11-28T23:16:22.000Z,1008.934
2018-11-28T23:26:22.000Z,1008.803
2018-11-28T23:36:22.000Z,1008.672
2018-11-28T23:46:22.000Z,1008.504
2018-11-28T23:56:22.000Z,1008.495
